sensor_id;sensor_type;location;lat;lon;timestamp;temperature;humidity
35497;DHT22;21609;49.298;6.844;2024-02-15T00:00:20;18.20;52.50
35497;DHT22;21609;49.298;6.844;2024-02-15T00:02:47;18.10;52.50
35497;DHT22;21609;49.298;6.844;2024-02-15T00:05:13;18.10;52.50
35497;DHT22;21609;49.298;6.844;2024-02-15T00:07:40;18.10;52.50
35497;DHT22;21609;49.298;6.844;2024-02-15T00:10:06;18.20;52.40
35497;DHT22;21609;49.298;6.844;2024-02-15T00:12:32;18.20;52.40
35497;DHT22;21609;49.298;6.844;2024-02-15T00:14:57;18.20;52.50
35497;DHT22;21609;49.298;6.844;2024-02-15T00:17:27;18.10;52.50
35497;DHT22;21609;49.298;6.844;2024-02-15T00:19:54;18.10;52.60
35497;DHT22;21609;49.298;6.844;2024-02-15T00:22:20;18.20;52.60
35497;DHT22;21609;49.298;6.844;2024-02-15T00:24:47;18.10;52.60
35497;DHT22;21609;49.298;6.844;2024-02-15T00:27:17;18.10;52.60
35497;DHT22;21609;49.298;6.844;2024-02-15T00:29:42;18.10;52.70
35497;DHT22;21609;49.298;6.844;2024-02-15T00:32:09;18.10;52.70
35497;DHT22;21609;49.298;6.844;2024-02-15T00:34:36;18.10;52.70
35497;DHT22;21609;49.298;6.844;2024-02-15T00:37:04;18.00;52.70
35497;DHT22;21609;49.298;6.844;2024-02-15T00:39:30;18.00;52.70
35497;DHT22;21609;49.298;6.844;2024-02-15T00:41:57;18.00;52.70
35497;DHT22;21609;49.298;6.844;2024-02-15T00:44:22;18.00;52.80
35497;DHT22;21609;49.298;6.844;2024-02-15T00:46:48;18.00;52.80
35497;DHT22;21609;49.298;6.844;2024-02-15T00:49:14;18.00;52.70
35497;DHT22;21609;49.298;6.844;2024-02-15T00:51:39;18.00;52.80
35497;DHT22;21609;49.298;6.844;2024-02-15T00:54:05;18.00;52.80
35497;DHT22;21609;49.298;6.844;2024-02-15T00:56:31;18.00;52.80
35497;DHT22;21609;49.298;6.844;2024-02-15T00:58:59;17.90;52.70
35497;DHT22;21609;49.298;6.844;2024-02-15T01:01:26;17.90;52.80
35497;DHT22;21609;49.298;6.844;2024-02-15T01:03:51;17.90;52.80
35497;DHT22;21609;49.298;6.844;2024-02-15T01:06:17;17.90;52.80
35497;DHT22;21609;49.298;6.844;2024-02-15T01:08:43;17.90;52.80
35497;DHT22;21609;49.298;6.844;2024-02-15T01:11:09;17.90;52.80
35497;DHT22;21609;49.298;6.844;2024-02-15T01:13:35;17.90;52.80
35497;DHT22;21609;49.298;6.844;2024-02-15T01:16:00;17.90;52.80
35497;DHT22;21609;49.298;6.844;2024-02-15T01:18:28;17.90;52.80
35497;DHT22;21609;49.298;6.844;2024-02-15T01:20:55;17.80;52.80
35497;DHT22;21609;49.298;6.844;2024-02-15T01:23:21;17.90;52.90
35497;DHT22;21609;49.298;6.844;2024-02-15T01:25:48;17.80;52.80
35497;DHT22;21609;49.298;6.844;2024-02-15T01:28:13;17.80;52.80
35497;DHT22;21609;49.298;6.844;2024-02-15T01:30:39;17.80;53.50
35497;DHT22;21609;49.298;6.844;2024-02-15T01:33:05;17.80;52.90
35497;DHT22;21609;49.298;6.844;2024-02-15T01:35:30;17.80;52.90
35497;DHT22;21609;49.298;6.844;2024-02-15T01:37:56;17.80;52.90
35497;DHT22;21609;49.298;6.844;2024-02-15T01:40:21;17.80;52.90
35497;DHT22;21609;49.298;6.844;2024-02-15T01:42:47;17.70;52.90
35497;DHT22;21609;49.298;6.844;2024-02-15T01:45:15;17.70;52.90
35497;DHT22;21609;49.298;6.844;2024-02-15T01:47:41;17.80;53.00
35497;DHT22;21609;49.298;6.844;2024-02-15T01:50:11;17.70;52.90
35497;DHT22;21609;49.298;6.844;2024-02-15T01:52:38;17.80;53.00
35497;DHT22;21609;49.298;6.844;2024-02-15T01:55:05;17.70;53.00
35497;DHT22;21609;49.298;6.844;2024-02-15T01:57:35;17.70;53.00
35497;DHT22;21609;49.298;6.844;2024-02-15T02:00:01;17.70;53.00
35497;DHT22;21609;49.298;6.844;2024-02-15T02:02:31;17.70;53.00
35497;DHT22;21609;49.298;6.844;2024-02-15T02:04:57;17.70;53.00
35497;DHT22;21609;49.298;6.844;2024-02-15T02:07:23;17.70;53.00
35497;DHT22;21609;49.298;6.844;2024-02-15T02:09:49;17.70;53.10
35497;DHT22;21609;49.298;6.844;2024-02-15T02:12:15;17.60;53.00
35497;DHT22;21609;49.298;6.844;2024-02-15T02:14:40;17.60;53.00
35497;DHT22;21609;49.298;6.844;2024-02-15T02:17:15;17.60;53.00
35497;DHT22;21609;49.298;6.844;2024-02-15T02:19:44;17.60;53.00
35497;DHT22;21609;49.298;6.844;2024-02-15T02:22:09;17.60;53.00
35497;DHT22;21609;49.298;6.844;2024-02-15T02:24:44;17.60;53.00
35497;DHT22;21609;49.298;6.844;2024-02-15T02:27:13;17.60;53.00
35497;DHT22;21609;49.298;6.844;2024-02-15T02:29:43;17.60;53.00
35497;DHT22;21609;49.298;6.844;2024-02-15T02:32:12;17.60;53.00
35497;DHT22;21609;49.298;6.844;2024-02-15T02:34:38;17.60;53.00
35497;DHT22;21609;49.298;6.844;2024-02-15T02:37:04;17.60;53.10
35497;DHT22;21609;49.298;6.844;2024-02-15T02:39:31;17.60;53.10
35497;DHT22;21609;49.298;6.844;2024-02-15T02:41:57;17.60;53.10
35497;DHT22;21609;49.298;6.844;2024-02-15T02:44:23;17.60;53.10
35497;DHT22;21609;49.298;6.844;2024-02-15T02:46:49;17.50;53.10
35497;DHT22;21609;49.298;6.844;2024-02-15T02:49:14;17.60;53.20
35497;DHT22;21609;49.298;6.844;2024-02-15T02:51:40;17.50;53.10
35497;DHT22;21609;49.298;6.844;2024-02-15T02:54:05;17.50;53.10
35497;DHT22;21609;49.298;6.844;2024-02-15T02:56:32;17.50;53.10
35497;DHT22;21609;49.298;6.844;2024-02-15T02:58:58;17.50;53.20
35497;DHT22;21609;49.298;6.844;2024-02-15T03:01:24;17.60;53.20
35497;DHT22;21609;49.298;6.844;2024-02-15T03:03:53;17.50;53.20
35497;DHT22;21609;49.298;6.844;2024-02-15T03:06:21;17.50;53.10
35497;DHT22;21609;49.298;6.844;2024-02-15T03:08:47;17.50;53.20
35497;DHT22;21609;49.298;6.844;2024-02-15T03:11:12;17.50;53.80
35497;DHT22;21609;49.298;6.844;2024-02-15T03:13:39;17.50;53.20
35497;DHT22;21609;49.298;6.844;2024-02-15T03:16:05;17.50;53.80
35497;DHT22;21609;49.298;6.844;2024-02-15T03:18:31;17.50;53.20
35497;DHT22;21609;49.298;6.844;2024-02-15T03:20:58;17.40;53.20
35497;DHT22;21609;49.298;6.844;2024-02-15T03:23:24;17.40;53.20
35497;DHT22;21609;49.298;6.844;2024-02-15T03:25:49;17.40;53.20
35497;DHT22;21609;49.298;6.844;2024-02-15T03:28:15;17.50;53.30
35497;DHT22;21609;49.298;6.844;2024-02-15T03:30:41;17.40;53.20
35497;DHT22;21609;49.298;6.844;2024-02-15T03:33:08;17.40;53.30
35497;DHT22;21609;49.298;6.844;2024-02-15T03:35:34;17.40;53.30
35497;DHT22;21609;49.298;6.844;2024-02-15T03:38:00;17.40;53.30
35497;DHT22;21609;49.298;6.844;2024-02-15T03:40:26;17.40;53.30
35497;DHT22;21609;49.298;6.844;2024-02-15T03:42:53;17.40;53.30
35497;DHT22;21609;49.298;6.844;2024-02-15T03:45:19;17.40;53.30
35497;DHT22;21609;49.298;6.844;2024-02-15T03:47:44;17.40;53.30
35497;DHT22;21609;49.298;6.844;2024-02-15T03:50:11;17.40;53.30
35497;DHT22;21609;49.298;6.844;2024-02-15T03:52:37;17.40;53.30
35497;DHT22;21609;49.298;6.844;2024-02-15T03:55:04;17.40;53.30
35497;DHT22;21609;49.298;6.844;2024-02-15T03:57:29;17.40;53.20
35497;DHT22;21609;49.298;6.844;2024-02-15T03:59:55;17.40;53.30
35497;DHT22;21609;49.298;6.844;2024-02-15T04:02:23;17.40;53.30
35497;DHT22;21609;49.298;6.844;2024-02-15T04:04:55;17.40;53.30
35497;DHT22;21609;49.298;6.844;2024-02-15T04:07:24;17.40;53.30
35497;DHT22;21609;49.298;6.844;2024-02-15T04:09:52;17.30;53.30
35497;DHT22;21609;49.298;6.844;2024-02-15T04:12:18;17.40;53.30
35497;DHT22;21609;49.298;6.844;2024-02-15T04:14:44;17.30;53.20
35497;DHT22;21609;49.298;6.844;2024-02-15T04:17:14;17.40;53.30
35497;DHT22;21609;49.298;6.844;2024-02-15T04:19:43;17.30;53.30
35497;DHT22;21609;49.298;6.844;2024-02-15T04:22:09;17.30;53.30
35497;DHT22;21609;49.298;6.844;2024-02-15T04:24:35;17.30;53.30
35497;DHT22;21609;49.298;6.844;2024-02-15T04:27:06;17.30;53.30
35497;DHT22;21609;49.298;6.844;2024-02-15T04:29:34;17.30;53.30
35497;DHT22;21609;49.298;6.844;2024-02-15T04:31:59;17.30;53.40
35497;DHT22;21609;49.298;6.844;2024-02-15T04:34:25;17.30;53.40
35497;DHT22;21609;49.298;6.844;2024-02-15T04:36:51;17.30;53.40
35497;DHT22;21609;49.298;6.844;2024-02-15T04:39:20;17.30;53.40
35497;DHT22;21609;49.298;6.844;2024-02-15T04:41:50;17.30;53.40
35497;DHT22;21609;49.298;6.844;2024-02-15T04:44:16;17.20;53.40
35497;DHT22;21609;49.298;6.844;2024-02-15T04:46:45;17.30;53.40
35497;DHT22;21609;49.298;6.844;2024-02-15T04:49:12;17.30;53.40
35497;DHT22;21609;49.298;6.844;2024-02-15T04:51:38;17.20;53.50
35497;DHT22;21609;49.298;6.844;2024-02-15T04:54:06;17.20;53.50
35497;DHT22;21609;49.298;6.844;2024-02-15T04:56:33;17.20;53.50
35497;DHT22;21609;49.298;6.844;2024-02-15T04:58:58;17.20;53.50
35497;DHT22;21609;49.298;6.844;2024-02-15T05:01:24;17.20;53.50
35497;DHT22;21609;49.298;6.844;2024-02-15T05:03:49;17.20;53.50
35497;DHT22;21609;49.298;6.844;2024-02-15T05:06:15;17.20;53.50
35497;DHT22;21609;49.298;6.844;2024-02-15T05:08:40;17.20;53.50
35497;DHT22;21609;49.298;6.844;2024-02-15T05:11:12;17.20;53.50
35497;DHT22;21609;49.298;6.844;2024-02-15T05:13:46;17.20;53.50
35497;DHT22;21609;49.298;6.844;2024-02-15T05:16:12;17.20;53.50
35497;DHT22;21609;49.298;6.844;2024-02-15T05:18:37;17.20;53.50
35497;DHT22;21609;49.298;6.844;2024-02-15T05:21:05;17.20;53.50
35497;DHT22;21609;49.298;6.844;2024-02-15T05:23:37;17.20;53.50
35497;DHT22;21609;49.298;6.844;2024-02-15T05:26:06;17.20;53.50
35497;DHT22;21609;49.298;6.844;2024-02-15T05:28:31;17.20;53.50
35497;DHT22;21609;49.298;6.844;2024-02-15T05:31:15;17.20;53.50
35497;DHT22;21609;49.298;6.844;2024-02-15T05:33:48;17.10;53.40
35497;DHT22;21609;49.298;6.844;2024-02-15T05:36:15;17.10;53.40
35497;DHT22;21609;49.298;6.844;2024-02-15T05:38:41;17.10;53.50
35497;DHT22;21609;49.298;6.844;2024-02-15T05:41:07;17.10;53.50
35497;DHT22;21609;49.298;6.844;2024-02-15T05:43:36;17.10;53.50
35497;DHT22;21609;49.298;6.844;2024-02-15T05:46:04;17.10;53.50
35497;DHT22;21609;49.298;6.844;2024-02-15T05:48:32;17.10;53.40
35497;DHT22;21609;49.298;6.844;2024-02-15T05:51:00;17.10;53.40
35497;DHT22;21609;49.298;6.844;2024-02-15T05:53:26;17.10;53.50
35497;DHT22;21609;49.298;6.844;2024-02-15T05:55:52;17.10;53.50
35497;DHT22;21609;49.298;6.844;2024-02-15T05:58:18;17.10;53.40
35497;DHT22;21609;49.298;6.844;2024-02-15T06:00:44;17.10;53.50
35497;DHT22;21609;49.298;6.844;2024-02-15T06:03:10;17.10;53.50
35497;DHT22;21609;49.298;6.844;2024-02-15T06:05:36;17.10;53.50
35497;DHT22;21609;49.298;6.844;2024-02-15T06:08:03;17.10;53.50
35497;DHT22;21609;49.298;6.844;2024-02-15T06:10:29;17.10;53.50
35497;DHT22;21609;49.298;6.844;2024-02-15T06:12:56;17.10;53.60
35497;DHT22;21609;49.298;6.844;2024-02-15T06:15:22;17.10;53.60
35497;DHT22;21609;49.298;6.844;2024-02-15T06:17:49;17.10;53.60
35497;DHT22;21609;49.298;6.844;2024-02-15T06:20:15;17.00;53.50
35497;DHT22;21609;49.298;6.844;2024-02-15T06:22:43;17.10;53.60
35497;DHT22;21609;49.298;6.844;2024-02-15T06:25:09;17.00;53.60
35497;DHT22;21609;49.298;6.844;2024-02-15T06:27:36;17.00;53.60
35497;DHT22;21609;49.298;6.844;2024-02-15T06:30:09;17.00;53.60
35497;DHT22;21609;49.298;6.844;2024-02-15T06:32:53;17.00;53.60
35497;DHT22;21609;49.298;6.844;2024-02-15T06:35:37;17.00;53.60
35497;DHT22;21609;49.298;6.844;2024-02-15T06:38:23;17.00;53.60
35497;DHT22;21609;49.298;6.844;2024-02-15T06:41:08;17.00;53.70
35497;DHT22;21609;49.298;6.844;2024-02-15T06:43:35;17.00;53.60
35497;DHT22;21609;49.298;6.844;2024-02-15T06:46:01;17.00;53.70
35497;DHT22;21609;49.298;6.844;2024-02-15T06:48:27;17.00;53.60
35497;DHT22;21609;49.298;6.844;2024-02-15T06:50:52;17.00;53.80
35497;DHT22;21609;49.298;6.844;2024-02-15T06:53:18;17.00;53.70
35497;DHT22;21609;49.298;6.844;2024-02-15T06:55:46;17.00;53.70
35497;DHT22;21609;49.298;6.844;2024-02-15T06:58:15;17.00;53.70
35497;DHT22;21609;49.298;6.844;2024-02-15T07:00:41;17.00;53.70
35497;DHT22;21609;49.298;6.844;2024-02-15T07:03:08;17.00;53.70
35497;DHT22;21609;49.298;6.844;2024-02-15T07:05:33;17.00;53.80
35497;DHT22;21609;49.298;6.844;2024-02-15T07:07:59;16.90;53.70
35497;DHT22;21609;49.298;6.844;2024-02-15T07:10:24;17.00;53.80
35497;DHT22;21609;49.298;6.844;2024-02-15T07:12:50;16.90;53.70
35497;DHT22;21609;49.298;6.844;2024-02-15T07:15:16;17.00;53.80
35497;DHT22;21609;49.298;6.844;2024-02-15T07:17:42;16.90;53.70
35497;DHT22;21609;49.298;6.844;2024-02-15T07:20:10;16.90;53.70
35497;DHT22;21609;49.298;6.844;2024-02-15T07:22:36;16.90;53.70
35497;DHT22;21609;49.298;6.844;2024-02-15T07:25:04;16.90;53.70
35497;DHT22;21609;49.298;6.844;2024-02-15T07:27:30;17.00;53.70
35497;DHT22;21609;49.298;6.844;2024-02-15T07:29:55;17.00;53.70
35497;DHT22;21609;49.298;6.844;2024-02-15T07:32:21;16.90;53.70
35497;DHT22;21609;49.298;6.844;2024-02-15T07:34:53;16.90;53.70
35497;DHT22;21609;49.298;6.844;2024-02-15T07:37:21;16.90;53.70
35497;DHT22;21609;49.298;6.844;2024-02-15T07:39:51;16.90;53.70
35497;DHT22;21609;49.298;6.844;2024-02-15T07:42:20;16.90;53.70
35497;DHT22;21609;49.298;6.844;2024-02-15T07:44:45;16.90;53.70
35497;DHT22;21609;49.298;6.844;2024-02-15T07:47:11;16.90;53.70
35497;DHT22;21609;49.298;6.844;2024-02-15T07:49:36;16.90;53.70
35497;DHT22;21609;49.298;6.844;2024-02-15T07:52:05;16.90;53.70
35497;DHT22;21609;49.298;6.844;2024-02-15T07:54:31;16.90;53.70
35497;DHT22;21609;49.298;6.844;2024-02-15T07:56:58;17.00;54.10
35497;DHT22;21609;49.298;6.844;2024-02-15T07:59:24;17.20;53.90
35497;DHT22;21609;49.298;6.844;2024-02-15T08:01:50;17.40;53.20
35497;DHT22;21609;49.298;6.844;2024-02-15T08:04:16;17.60;53.00
35497;DHT22;21609;49.298;6.844;2024-02-15T08:06:42;17.70;52.60
35497;DHT22;21609;49.298;6.844;2024-02-15T08:09:09;17.90;52.30
35497;DHT22;21609;49.298;6.844;2024-02-15T08:11:39;18.00;51.90
35497;DHT22;21609;49.298;6.844;2024-02-15T08:14:05;18.20;51.80
35497;DHT22;21609;49.298;6.844;2024-02-15T08:16:33;18.30;51.80
35497;DHT22;21609;49.298;6.844;2024-02-15T08:19:00;18.40;51.40
35497;DHT22;21609;49.298;6.844;2024-02-15T08:21:30;18.50;51.20
35497;DHT22;21609;49.298;6.844;2024-02-15T08:23:58;18.60;51.10
35497;DHT22;21609;49.298;6.844;2024-02-15T08:26:24;18.70;51.10
35497;DHT22;21609;49.298;6.844;2024-02-15T08:28:49;18.80;51.00
35497;DHT22;21609;49.298;6.844;2024-02-15T08:31:15;18.90;51.10
35497;DHT22;21609;49.298;6.844;2024-02-15T08:33:41;18.90;51.00
35497;DHT22;21609;49.298;6.844;2024-02-15T08:36:08;18.90;50.90
35497;DHT22;21609;49.298;6.844;2024-02-15T08:38:36;19.00;51.00
35497;DHT22;21609;49.298;6.844;2024-02-15T08:41:02;19.10;51.00
35497;DHT22;21609;49.298;6.844;2024-02-15T08:43:29;19.10;51.60
35497;DHT22;21609;49.298;6.844;2024-02-15T08:45:58;19.10;50.90
35497;DHT22;21609;49.298;6.844;2024-02-15T08:48:24;19.20;50.80
35497;DHT22;21609;49.298;6.844;2024-02-15T08:50:50;19.20;50.90
35497;DHT22;21609;49.298;6.844;2024-02-15T08:53:15;19.20;51.00
35497;DHT22;21609;49.298;6.844;2024-02-15T08:55:43;19.30;51.00
35497;DHT22;21609;49.298;6.844;2024-02-15T08:58:09;19.30;51.00
35497;DHT22;21609;49.298;6.844;2024-02-15T09:00:35;19.40;51.00
35497;DHT22;21609;49.298;6.844;2024-02-15T09:03:01;19.50;51.00
35497;DHT22;21609;49.298;6.844;2024-02-15T09:05:26;19.50;51.10
35497;DHT22;21609;49.298;6.844;2024-02-15T09:07:52;19.50;51.10
35497;DHT22;21609;49.298;6.844;2024-02-15T09:10:18;19.60;51.20
35497;DHT22;21609;49.298;6.844;2024-02-15T09:12:45;19.70;51.10
35497;DHT22;21609;49.298;6.844;2024-02-15T09:15:14;19.70;51.10
35497;DHT22;21609;49.298;6.844;2024-02-15T09:17:40;19.80;50.90
35497;DHT22;21609;49.298;6.844;2024-02-15T09:20:06;19.90;50.90
35497;DHT22;21609;49.298;6.844;2024-02-15T09:22:33;19.80;51.10
35497;DHT22;21609;49.298;6.844;2024-02-15T09:25:01;19.70;51.50
35497;DHT22;21609;49.298;6.844;2024-02-15T09:27:27;19.60;51.80
35497;DHT22;21609;49.298;6.844;2024-02-15T09:29:53;19.50;52.00
35497;DHT22;21609;49.298;6.844;2024-02-15T09:32:18;19.60;51.90
35497;DHT22;21609;49.298;6.844;2024-02-15T09:34:44;19.50;52.00
35497;DHT22;21609;49.298;6.844;2024-02-15T09:37:09;19.50;52.10
35497;DHT22;21609;49.298;6.844;2024-02-15T09:39:37;19.50;52.10
35497;DHT22;21609;49.298;6.844;2024-02-15T09:42:03;19.50;52.10
35497;DHT22;21609;49.298;6.844;2024-02-15T09:44:29;19.50;52.10
35497;DHT22;21609;49.298;6.844;2024-02-15T09:47:05;19.60;52.10
35497;DHT22;21609;49.298;6.844;2024-02-15T09:49:37;19.60;52.00
35497;DHT22;21609;49.298;6.844;2024-02-15T09:52:06;19.60;52.00
35497;DHT22;21609;49.298;6.844;2024-02-15T09:54:39;19.50;52.20
35497;DHT22;21609;49.298;6.844;2024-02-15T09:57:05;19.60;52.20
35497;DHT22;21609;49.298;6.844;2024-02-15T09:59:31;19.70;52.50
35497;DHT22;21609;49.298;6.844;2024-02-15T10:02:02;19.80;51.70
35497;DHT22;21609;49.298;6.844;2024-02-15T10:04:28;19.80;51.70
35497;DHT22;21609;49.298;6.844;2024-02-15T10:06:53;19.90;51.70
35497;DHT22;21609;49.298;6.844;2024-02-15T10:09:30;19.90;51.60
35497;DHT22;21609;49.298;6.844;2024-02-15T10:12:00;19.90;51.60
35497;DHT22;21609;49.298;6.844;2024-02-15T10:14:27;20.00;51.60
35497;DHT22;21609;49.298;6.844;2024-02-15T10:16:53;20.00;51.60
35497;DHT22;21609;49.298;6.844;2024-02-15T10:19:20;20.20;51.30
35497;DHT22;21609;49.298;6.844;2024-02-15T10:21:52;20.20;51.10
35497;DHT22;21609;49.298;6.844;2024-02-15T10:24:21;20.40;50.70
35497;DHT22;21609;49.298;6.844;2024-02-15T10:26:48;20.50;50.70
35497;DHT22;21609;49.298;6.844;2024-02-15T10:29:14;20.60;50.40
35497;DHT22;21609;49.298;6.844;2024-02-15T10:31:52;20.60;50.40
35497;DHT22;21609;49.298;6.844;2024-02-15T10:34:18;20.60;50.40
35497;DHT22;21609;49.298;6.844;2024-02-15T10:36:47;20.70;50.40
35497;DHT22;21609;49.298;6.844;2024-02-15T10:39:17;20.80;50.40
35497;DHT22;21609;49.298;6.844;2024-02-15T10:41:49;20.80;50.50
35497;DHT22;21609;49.298;6.844;2024-02-15T10:44:17;20.80;50.40
35497;DHT22;21609;49.298;6.844;2024-02-15T10:46:45;20.90;50.20
35497;DHT22;21609;49.298;6.844;2024-02-15T10:49:12;20.90;50.30
35497;DHT22;21609;49.298;6.844;2024-02-15T10:51:41;21.00;50.00
35497;DHT22;21609;49.298;6.844;2024-02-15T10:54:12;21.20;50.00
35497;DHT22;21609;49.298;6.844;2024-02-15T10:56:43;21.20;49.70
35497;DHT22;21609;49.298;6.844;2024-02-15T10:59:18;21.20;49.80
35497;DHT22;21609;49.298;6.844;2024-02-15T11:01:46;21.10;49.90
35497;DHT22;21609;49.298;6.844;2024-02-15T11:04:17;21.20;50.00
35497;DHT22;21609;49.298;6.844;2024-02-15T11:06:47;21.10;50.10
35497;DHT22;21609;49.298;6.844;2024-02-15T11:09:16;21.10;50.20
35497;DHT22;21609;49.298;6.844;2024-02-15T11:11:42;21.10;50.20
35497;DHT22;21609;49.298;6.844;2024-02-15T11:14:29;21.20;50.10
35497;DHT22;21609;49.298;6.844;2024-02-15T11:16:58;21.10;50.00
35497;DHT22;21609;49.298;6.844;2024-02-15T11:22:01;20.90;50.60
35497;DHT22;21609;49.298;6.844;2024-02-15T11:24:30;20.80;51.00
35497;DHT22;21609;49.298;6.844;2024-02-15T11:27:06;20.60;51.20
35497;DHT22;21609;49.298;6.844;2024-02-15T11:32:45;20.50;51.40
35497;DHT22;21609;49.298;6.844;2024-02-15T11:35:29;20.60;51.50
35497;DHT22;21609;49.298;6.844;2024-02-15T11:37:57;20.60;51.40
35497;DHT22;21609;49.298;6.844;2024-02-15T11:46:17;20.60;51.40
35497;DHT22;21609;49.298;6.844;2024-02-15T11:48:45;20.60;51.50
35497;DHT22;21609;49.298;6.844;2024-02-15T11:51:31;20.60;52.20
35497;DHT22;21609;49.298;6.844;2024-02-15T11:54:06;20.60;51.40
35497;DHT22;21609;49.298;6.844;2024-02-15T11:56:48;20.60;51.60
35497;DHT22;21609;49.298;6.844;2024-02-15T11:59:16;20.60;51.60
35497;DHT22;21609;49.298;6.844;2024-02-15T12:01:58;20.60;51.60
35497;DHT22;21609;49.298;6.844;2024-02-15T12:04:50;20.60;51.50
35497;DHT22;21609;49.298;6.844;2024-02-15T12:07:34;20.60;51.60
35497;DHT22;21609;49.298;6.844;2024-02-15T12:10:18;20.60;51.60
35497;DHT22;21609;49.298;6.844;2024-02-15T12:13:03;20.60;51.70
35497;DHT22;21609;49.298;6.844;2024-02-15T12:16:00;20.50;51.70
35497;DHT22;21609;49.298;6.844;2024-02-15T12:18:45;20.70;51.40
35497;DHT22;21609;49.298;6.844;2024-02-15T12:21:15;20.70;51.50
35497;DHT22;21609;49.298;6.844;2024-02-15T12:23:41;20.60;51.50
35497;DHT22;21609;49.298;6.844;2024-02-15T12:26:07;20.60;51.40
35497;DHT22;21609;49.298;6.844;2024-02-15T12:28:33;20.70;51.30
35497;DHT22;21609;49.298;6.844;2024-02-15T12:31:01;20.70;51.30
35497;DHT22;21609;49.298;6.844;2024-02-15T12:33:27;20.70;51.40
35497;DHT22;21609;49.298;6.844;2024-02-15T12:36:03;20.60;51.40
35497;DHT22;21609;49.298;6.844;2024-02-15T12:38:30;20.60;51.50
35497;DHT22;21609;49.298;6.844;2024-02-15T12:40:56;20.60;51.50
35497;DHT22;21609;49.298;6.844;2024-02-15T12:43:22;20.70;51.40
35497;DHT22;21609;49.298;6.844;2024-02-15T12:45:48;20.70;51.20
35497;DHT22;21609;49.298;6.844;2024-02-15T12:48:13;20.70;51.20
35497;DHT22;21609;49.298;6.844;2024-02-15T12:50:40;20.70;51.20
35497;DHT22;21609;49.298;6.844;2024-02-15T12:53:06;20.70;51.30
35497;DHT22;21609;49.298;6.844;2024-02-15T12:55:35;20.70;51.20
35497;DHT22;21609;49.298;6.844;2024-02-15T12:58:02;20.70;51.10
35497;DHT22;21609;49.298;6.844;2024-02-15T13:00:34;20.70;51.30
35497;DHT22;21609;49.298;6.844;2024-02-15T13:03:08;20.70;51.20
35497;DHT22;21609;49.298;6.844;2024-02-15T13:05:35;20.70;51.20
35497;DHT22;21609;49.298;6.844;2024-02-15T13:08:04;20.70;51.30
35497;DHT22;21609;49.298;6.844;2024-02-15T13:10:38;20.70;51.30
35497;DHT22;21609;49.298;6.844;2024-02-15T13:13:04;20.70;51.20
35497;DHT22;21609;49.298;6.844;2024-02-15T13:15:31;20.70;51.20
35497;DHT22;21609;49.298;6.844;2024-02-15T13:18:00;20.70;51.30
35497;DHT22;21609;49.298;6.844;2024-02-15T13:20:26;20.70;51.20
35497;DHT22;21609;49.298;6.844;2024-02-15T13:23:04;20.70;51.10
35497;DHT22;21609;49.298;6.844;2024-02-15T13:25:56;20.70;51.20
35497;DHT22;21609;49.298;6.844;2024-02-15T13:28:25;20.70;51.20
35497;DHT22;21609;49.298;6.844;2024-02-15T13:30:51;20.60;51.20
35497;DHT22;21609;49.298;6.844;2024-02-15T13:33:19;20.70;51.20
35497;DHT22;21609;49.298;6.844;2024-02-15T13:35:45;20.70;51.10
35497;DHT22;21609;49.298;6.844;2024-02-15T13:38:11;20.80;51.00
35497;DHT22;21609;49.298;6.844;2024-02-15T13:40:40;20.70;51.00
35497;DHT22;21609;49.298;6.844;2024-02-15T13:43:06;20.80;51.00
35497;DHT22;21609;49.298;6.844;2024-02-15T13:45:39;20.80;50.90
35497;DHT22;21609;49.298;6.844;2024-02-15T13:48:05;20.70;50.90
35497;DHT22;21609;49.298;6.844;2024-02-15T13:50:32;20.70;51.00
35497;DHT22;21609;49.298;6.844;2024-02-15T13:52:58;20.80;51.00
35497;DHT22;21609;49.298;6.844;2024-02-15T13:55:25;20.70;51.50
35497;DHT22;21609;49.298;6.844;2024-02-15T13:57:51;20.80;51.50
35497;DHT22;21609;49.298;6.844;2024-02-15T14:00:18;20.80;50.80
35497;DHT22;21609;49.298;6.844;2024-02-15T14:02:57;20.80;51.00
35497;DHT22;21609;49.298;6.844;2024-02-15T14:05:27;20.80;50.90
35497;DHT22;21609;49.298;6.844;2024-02-15T14:08:02;20.80;50.90
35497;DHT22;21609;49.298;6.844;2024-02-15T14:10:29;20.80;50.60
35497;DHT22;21609;49.298;6.844;2024-02-15T14:12:55;20.80;50.70
35497;DHT22;21609;49.298;6.844;2024-02-15T14:15:24;20.70;50.80
35497;DHT22;21609;49.298;6.844;2024-02-15T14:17:49;20.70;50.90
35497;DHT22;21609;49.298;6.844;2024-02-15T14:20:15;20.70;51.00
35497;DHT22;21609;49.298;6.844;2024-02-15T14:22:45;20.70;51.00
35497;DHT22;21609;49.298;6.844;2024-02-15T14:25:15;20.70;51.00
35497;DHT22;21609;49.298;6.844;2024-02-15T14:27:40;20.60;51.10
35497;DHT22;21609;49.298;6.844;2024-02-15T14:30:08;20.70;51.20
35497;DHT22;21609;49.298;6.844;2024-02-15T14:32:52;20.60;51.20
35497;DHT22;21609;49.298;6.844;2024-02-15T14:35:35;20.70;51.00
35497;DHT22;21609;49.298;6.844;2024-02-15T14:38:05;20.70;51.00
35497;DHT22;21609;49.298;6.844;2024-02-15T14:40:36;20.70;50.90
35497;DHT22;21609;49.298;6.844;2024-02-15T14:43:03;20.70;50.90
35497;DHT22;21609;49.298;6.844;2024-02-15T14:45:33;20.70;50.90
35497;DHT22;21609;49.298;6.844;2024-02-15T14:47:59;20.70;50.90
35497;DHT22;21609;49.298;6.844;2024-02-15T14:50:25;20.70;50.90
35497;DHT22;21609;49.298;6.844;2024-02-15T14:52:53;20.60;50.80
35497;DHT22;21609;49.298;6.844;2024-02-15T14:55:19;20.70;50.90
35497;DHT22;21609;49.298;6.844;2024-02-15T14:57:46;20.70;51.10
35497;DHT22;21609;49.298;6.844;2024-02-15T15:00:12;20.70;51.00
35497;DHT22;21609;49.298;6.844;2024-02-15T15:02:45;20.70;51.00
35497;DHT22;21609;49.298;6.844;2024-02-15T15:05:14;20.60;50.90
35497;DHT22;21609;49.298;6.844;2024-02-15T15:07:59;20.70;51.00
35497;DHT22;21609;49.298;6.844;2024-02-15T15:10:47;20.60;51.00
35497;DHT22;21609;49.298;6.844;2024-02-15T15:13:35;20.70;50.90
35497;DHT22;21609;49.298;6.844;2024-02-15T15:16:02;20.70;50.80
35497;DHT22;21609;49.298;6.844;2024-02-15T15:18:32;20.60;50.80
35497;DHT22;21609;49.298;6.844;2024-02-15T15:20:59;20.70;50.90
35497;DHT22;21609;49.298;6.844;2024-02-15T15:23:26;20.70;50.90
35497;DHT22;21609;49.298;6.844;2024-02-15T15:25:52;20.60;50.90
35497;DHT22;21609;49.298;6.844;2024-02-15T15:28:17;20.70;50.90
35497;DHT22;21609;49.298;6.844;2024-02-15T15:30:44;20.60;51.00
35497;DHT22;21609;49.298;6.844;2024-02-15T15:33:14;20.70;51.00
35497;DHT22;21609;49.298;6.844;2024-02-15T15:35:40;20.60;51.10
35497;DHT22;21609;49.298;6.844;2024-02-15T15:38:06;20.60;51.20
35497;DHT22;21609;49.298;6.844;2024-02-15T15:40:32;20.60;51.20
35497;DHT22;21609;49.298;6.844;2024-02-15T15:42:57;20.50;51.10
35497;DHT22;21609;49.298;6.844;2024-02-15T15:45:23;20.50;51.20
35497;DHT22;21609;49.298;6.844;2024-02-15T15:47:50;20.60;51.20